TOTEM BAY KUPREANOF ISLAND RAWS NEAR PE HADS current weather conditions

sailwx.info

Wind from 255 at 4 knots gusting 7

Air temperature 15.0° C
Dewpoint 10.0° C

Last reported at 2017-Jun-23 17:55 UTC.
Time now 2017-Jun-23 19:11 UTC

Location: N 56°18' W 132°51'.
View on Google Maps.

See reports from other nearby stations

  
Tides and Currents Weather Stations Pressure Air Temp Water Temp Dewpoint Dewpoint Depression Visibility Wind Speed Wind Dir Waves Ship Positions
date/time (UTC)wind fromknots sea level pressurealtimeterstation pressurevisibilityair tempwater tempwave heightnotes
2017-Jun-23 17:55 255 4 gusting 7 15.0
2017-Jun-23 16:55 256 2 gusting 5 14.4
2017-Jun-23 15:55 274 1 gusting 2 12.8
2017-Jun-23 14:55 295 11.7
2017-Jun-23 13:55 188 0 gusting 1 9.4
2017-Jun-23 12:55 241 8.3
2017-Jun-23 11:55 238 8.9
2017-Jun-23 10:55 113 0 gusting 2 8.9
2017-Jun-23 09:55 071 0 gusting 3 8.9
2017-Jun-23 08:55 110 1 gusting 4 9.4
2017-Jun-23 07:55 054 3 gusting 4 10.0
2017-Jun-23 06:55 018 0 gusting 3 10.0
2017-Jun-23 05:55 123 0 gusting 2 10.0
2017-Jun-23 04:55 313 1 gusting 5 11.7
2017-Jun-23 03:55 323 0 gusting 7 12.8
2017-Jun-23 02:55 265 3 gusting 10 14.4
2017-Jun-23 01:55 232 6 gusting 9 14.4
2017-Jun-23 00:55 095 0 gusting 3 12.8
2017-Jun-22 23:55 124 1 gusting 6 11.7
2017-Jun-22 22:55 080 4 gusting 7 11.1
2017-Jun-22 21:55 173 1 gusting 4 12.8
2017-Jun-22 20:55 046 1 gusting 4 11.7
2017-Jun-22 19:55 300 0 gusting 4 11.1
2017-Jun-22 18:55 078 2 gusting 4 10.6
2017-Jun-22 17:55 326 0 gusting 4 10.6
2017-Jun-22 16:55 299 0 gusting 5 9.4
2017-Jun-22 15:55 280 1 gusting 4 10.0
2017-Jun-22 14:55 114 9.4
2017-Jun-22 13:55 061 0 gusting 2 8.9
2017-Jun-22 12:55 127 0 gusting 2 7.8
2017-Jun-22 11:55 010 0 gusting 2 7.8
2017-Jun-22 10:55 339 0 gusting 2 8.3
2017-Jun-22 09:55 309 0 gusting 5 8.3
2017-Jun-22 08:55 205 3 gusting 8 8.3
2017-Jun-22 07:55 207 4 gusting 7 8.9
2017-Jun-22 06:55 210 4 gusting 9 8.9
2017-Jun-22 05:55 049 0 gusting 3 8.9
2017-Jun-22 04:55 241 1 gusting 5 8.9
2017-Jun-22 03:55 261 1 gusting 4 10.0
2017-Jun-22 02:55 199 2 gusting 7 10.0
2017-Jun-22 01:55 219 4 gusting 10 9.4
2017-Jun-22 00:55 194 6 gusting 13 10.0
2017-Jun-21 23:55 188 7 gusting 14 11.1
2017-Jun-21 22:55 203 7 gusting 13 11.7
2017-Jun-21 21:55 199 5 gusting 10 12.8
2017-Jun-21 20:55 213 5 gusting 10 11.1
2017-Jun-21 19:55 219 5 gusting 10 10.6